Time;durP1;ratioP1;P1;durP2;ratioP2;P2;SDS_P1;SDS_P2;PMS_P1;PMS_P2;Temp;Humidity;BMP_temperature;BMP_pressure;BME280_temperature;BME280_humidity;BME280_pressure;Samples;Min_cycle;Max_cycle;Signal;HPM_P1;HPM_P2
2022/09/30 00:06:35;;;;;;;1999.90;999.90;;;7.90;99.90;;;;;;6643033;89;20232;-78
2022/09/30 00:16:36;;;;;;;1999.90;999.90;;;7.80;99.90;;;;;;6647678;89;20210;-78
2022/09/30 00:26:37;;;;;;;1999.90;999.90;;;7.70;99.90;;;;;;6654121;89;20201;-78
2022/09/30 00:36:49;;;;;;;1999.90;999.90;;;7.60;99.90;;;;;;6652929;88;20267;-77
2022/09/30 00:46:49;;;;;;;1999.90;999.90;;;7.70;99.90;;;;;;6655776;89;20221;-78
2022/09/30 00:56:56;;;;;;;1999.90;999.90;;;7.50;99.90;;;;;;6652569;89;20219;-78
2022/09/30 01:07:05;;;;;;;1999.90;999.90;;;7.40;99.90;;;;;;6656356;89;20529;-77
2022/09/30 01:17:31;;;;;;;1999.90;999.90;;;7.40;99.90;;;;;;6655870;88;20741;-78
2022/09/30 01:28:11;;;;;;;1999.90;999.90;;;7.10;99.90;;;;;;6648816;89;20238;-78
2022/09/30 01:38:37;;;;;;;1999.90;999.90;;;7.10;99.90;;;;;;6651976;89;20225;-77
2022/09/30 01:48:52;;;;;;;1999.90;999.90;;;7.00;99.90;;;;;;6663118;89;20802;-77
2022/09/30 01:59:03;;;;;;;1999.90;999.90;;;7.00;99.90;;;;;;6648675;89;20235;-78
2022/09/30 02:09:47;;;;;;;1999.90;999.90;;;6.70;99.90;;;;;;6653018;89;20616;-78
2022/09/30 02:19:54;;;;;;;1999.90;999.90;;;6.60;99.90;;;;;;6673685;88;20298;-78
2022/09/30 02:29:56;;;;;;;;;;;6.20;99.90;;;;;;6654198;89;20201;-77
2022/09/30 02:40:09;;;;;;;1999.90;999.90;;;6.50;99.90;;;;;;6656531;89;20206;-78
2022/09/30 02:50:21;;;;;;;1999.90;999.90;;;6.40;99.90;;;;;;6652014;89;20241;-77
2022/09/30 03:00:23;;;;;;;1999.90;999.90;;;6.30;99.90;;;;;;6651950;89;22244;-78
2022/09/30 03:10:24;;;;;;;1999.90;999.90;;;6.40;99.90;;;;;;6652743;89;20200;-77
2022/09/30 03:20:45;;;;;;;1999.90;999.90;;;6.30;99.90;;;;;;6655036;89;20250;-78
2022/09/30 03:30:51;;;;;;;1999.90;999.90;;;6.30;99.90;;;;;;6650947;77;20213;-78
2022/09/30 03:41:02;;;;;;;;;;;6.10;99.90;;;;;;6648392;89;20367;-77
2022/09/30 03:51:05;;;;;;;1999.90;999.90;;;6.00;99.90;;;;;;6635550;88;20267;-79
2022/09/30 04:01:05;;;;;;;1999.90;999.90;;;5.90;99.90;;;;;;6649196;88;20192;-77
2022/09/30 04:11:05;;;;;;;1999.90;999.90;;;6.00;99.90;;;;;;6635335;88;20651;-78
2022/09/30 04:21:08;;;;;;;1999.90;999.90;;;5.70;99.90;;;;;;6634206;88;20717;-77
2022/09/30 04:31:10;;;;;;;1999.90;999.90;;;5.60;99.90;;;;;;6642506;88;20224;-78
2022/09/30 04:41:17;;;;;;;1999.90;999.90;;;5.60;99.90;;;;;;6639949;88;20181;-78
2022/09/30 04:51:20;;;;;;;1999.90;999.90;;;5.50;99.90;;;;;;6639704;88;20193;-79
2022/09/30 05:01:20;;;;;;;1999.90;999.90;;;5.70;99.90;;;;;;6646554;88;20198;-76
2022/09/30 05:11:21;;;;;;;1999.90;999.90;;;5.60;99.90;;;;;;6638117;88;20207;-79
2022/09/30 05:21:22;;;;;;;1999.90;999.90;;;5.40;99.90;;;;;;6636449;88;20217;-80
2022/09/30 05:31:22;;;;;;;1999.90;999.90;;;5.40;99.90;;;;;;6638797;88;20201;-77
2022/09/30 05:41:23;;;;;;;1999.90;999.90;;;5.40;99.90;;;;;;6641679;88;20563;-80
2022/09/30 05:51:25;;;;;;;1999.90;999.90;;;5.40;99.90;;;;;;6633815;88;20758;-77
2022/09/30 06:01:26;;;;;;;1999.90;999.90;;;5.40;99.90;;;;;;6637967;88;20356;-79
2022/09/30 06:11:26;;;;;;;1999.90;999.90;;;5.40;99.90;;;;;;6635356;88;20264;-80
2022/09/30 06:21:27;;;;;;;1999.90;999.90;;;5.40;99.90;;;;;;6628013;88;20324;-79
2022/09/30 06:31:29;;;;;;;1999.90;999.90;;;5.30;99.90;;;;;;6628088;88;20262;-78
2022/09/30 06:41:30;;;;;;;1999.90;999.90;;;5.20;99.90;;;;;;6627955;89;20194;-78
2022/09/30 06:51:35;;;;;;;1999.90;999.90;;;5.40;99.90;;;;;;6636661;88;20214;-78
2022/09/30 07:01:35;;;;;;;1999.90;999.90;;;5.50;99.90;;;;;;6633890;88;20201;-78
2022/09/30 07:11:36;;;;;;;1999.90;999.90;;;5.70;99.90;;;;;;6618873;88;20754;-77
2022/09/30 07:21:36;;;;;;;1999.90;999.90;;;6.10;99.90;;;;;;6622166;88;20645;-77
2022/09/30 07:31:37;;;;;;;1999.90;999.90;;;6.60;99.90;;;;;;6624634;88;20258;-78
2022/09/30 07:41:39;;;;;;;1999.90;999.90;;;6.90;99.90;;;;;;6622977;88;20705;-77
2022/09/30 07:51:44;;;;;;;1999.90;999.90;;;7.50;99.90;;;;;;6624242;88;20332;-78
2022/09/30 08:01:46;;;;;;;1999.90;999.90;;;8.20;99.90;;;;;;6621145;88;20327;-78
2022/09/30 08:11:47;;;;;;;1999.90;999.90;;;8.90;99.90;;;;;;6622011;88;20234;-76
2022/09/30 08:21:49;;;;;;;1999.90;999.90;;;9.90;99.90;;;;;;6617408;88;20231;-76
2022/09/30 08:31:50;;;;;;;1999.90;999.90;;;10.30;99.90;;;;;;6627868;88;20421;-76
2022/09/30 08:42:29;;;;;;;1999.90;999.90;;;10.10;99.90;;;;;;6632750;88;20197;-77
2022/09/30 08:52:40;;;;;;;1999.90;999.90;;;10.30;99.90;;;;;;6640283;88;20319;-77
2022/09/30 09:02:45;;;;;;;1999.90;999.90;;;10.70;99.90;;;;;;6627349;88;20546;-77
2022/09/30 09:13:15;;;;;;;1999.90;999.90;;;11.20;99.90;;;;;;6624130;88;20664;-78
2022/09/30 09:23:16;;;;;;;1999.90;999.90;;;12.10;99.90;;;;;;6620518;88;20650;-78
2022/09/30 09:33:57;;;;;;;1999.90;999.90;;;13.50;99.90;;;;;;6646639;77;20205;-78
2022/09/30 09:44:12;;;;;;;1999.90;999.90;;;13.90;99.90;;;;;;6661160;88;20213;-80
2022/09/30 09:54:15;;;;;;;1999.90;999.90;;;14.30;99.90;;;;;;6637291;88;20829;-79
2022/09/30 10:04:26;;;;;;;1999.90;999.90;;;15.40;99.90;;;;;;6641663;89;20731;-79
2022/09/30 10:14:27;;;;;;;1999.90;999.90;;;15.50;99.90;;;;;;6636985;89;20213;-78
2022/09/30 10:24:30;;;;;;;1999.90;999.90;;;16.90;99.90;;;;;;6639008;89;20607;-79
2022/09/30 10:34:37;;;;;;;1999.90;999.90;;;18.00;99.90;;;;;;6639872;88;20947;-78
2022/09/30 10:44:44;;;;;;;1999.90;999.90;;;20.30;99.90;;;;;;6629359;88;20320;-80
2022/09/30 10:54:52;;;;;;;1999.90;999.90;;;21.30;99.90;;;;;;6649598;89;20197;-79
2022/09/30 11:05:00;;;;;;;1999.90;999.90;;;23.20;99.90;;;;;;6658427;89;20303;-80
2022/09/30 11:15:27;;;;;;;1999.90;999.90;;;22.40;99.90;;;;;;6636485;89;20337;-78
2022/09/30 11:25:38;;;;;;;1999.90;999.90;;;21.40;99.90;;;;;;6636285;89;20237;-79
2022/09/30 11:36:00;;;;;;;1999.90;999.90;;;21.90;99.00;;;;;;6631772;89;20662;-79
2022/09/30 11:46:22;;;;;;;1999.90;999.90;;;20.70;99.80;;;;;;6648256;89;20243;-82
2022/09/30 11:56:45;;;;;;;1999.90;999.90;;;19.40;99.90;;;;;;6636524;88;20220;-80
2022/09/30 12:07:16;;;;;;;1999.90;999.90;;;19.90;99.90;;;;;;6636332;89;20173;-81
2022/09/30 12:17:40;;;;;;;1999.90;999.90;;;20.00;99.90;;;;;;6637502;89;20707;-80
2022/09/30 12:27:47;;;;;;;1999.90;999.90;;;22.00;97.40;;;;;;6636756;89;20222;-79
2022/09/30 12:38:29;;;;;;;1999.90;999.90;;;20.10;97.50;;;;;;6639295;89;20204;-81
2022/09/30 12:48:54;;;;;;;1999.90;999.90;;;19.00;98.90;;;;;;6639927;89;20243;-80
2022/09/30 12:58:56;;;;;;;1999.90;999.90;;;20.10;97.90;;;;;;6639151;89;20656;-81
2022/09/30 13:09:15;;;;;;;1999.90;999.90;;;21.30;97.00;;;;;;6635390;89;20193;-82
2022/09/30 13:19:20;;;;;;;1999.90;999.90;;;21.60;96.20;;;;;;6639231;89;20695;-80
2022/09/30 13:29:33;;;;;;;1999.90;999.90;;;21.90;94.10;;;;;;6642143;89;20219;-78
2022/09/30 13:39:34;;;;;;;1999.90;999.90;;;20.70;95.10;;;;;;6640269;88;20302;-79
2022/09/30 13:49:48;;;;;;;1999.90;999.90;;;21.20;94.70;;;;;;6643871;89;20372;-79
2022/09/30 14:00:06;;;;;;;1999.90;999.90;;;21.50;96.20;;;;;;6635104;89;20211;-79
2022/09/30 14:10:32;;;;;;;1999.90;999.90;;;20.70;97.50;;;;;;6640316;89;20208;-79
2022/09/30 14:21:04;;;;;;;1999.90;999.90;;;20.80;96.80;;;;;;6636032;89;20732;-78
2022/09/30 14:31:07;;;;;;;1999.90;999.90;;;20.10;97.60;;;;;;6645854;88;20737;-79
2022/09/30 14:41:15;;;;;;;1999.90;999.90;;;20.30;95.90;;;;;;6644419;88;20216;-77
2022/09/30 14:51:18;;;;;;;1999.90;999.90;;;21.40;94.50;;;;;;6644060;89;21156;-80
2022/09/30 15:01:24;;;;;;;1999.90;999.90;;;20.00;95.40;;;;;;6650418;88;20236;-79
2022/09/30 15:11:28;;;;;;;1999.90;999.90;;;19.40;95.10;;;;;;6662965;87;20451;-79
2022/09/30 15:21:30;;;;;;;1999.90;999.90;;;19.60;95.30;;;;;;6651480;88;20282;-78
2022/09/30 15:41:40;;;;;;;1999.90;999.90;;;18.30;97.00;;;;;;6645546;89;20215;-76
2022/09/30 15:51:42;;;;;;;1999.90;999.90;;;18.00;96.90;;;;;;6647493;89;20733;-76
2022/09/30 16:01:45;;;;;;;1999.90;999.90;;;17.90;97.10;;;;;;6648662;89;20666;-78
2022/09/30 16:11:58;;;;;;;1999.90;999.90;;;18.10;97.10;;;;;;6629144;89;20237;-76
2022/09/30 16:21:58;;;;;;;1999.90;999.90;;;17.80;97.30;;;;;;6634157;89;20184;-76
2022/09/30 16:31:59;;;;;;;1999.90;999.90;;;17.60;97.00;;;;;;6639160;89;20425;-77
2022/09/30 16:42:02;;;;;;;1999.90;999.90;;;17.30;98.40;;;;;;6645570;89;20575;-77
2022/09/30 16:52:04;;;;;;;1999.90;999.90;;;16.90;98.70;;;;;;6645620;89;20181;-77
2022/09/30 17:02:10;;;;;;;1999.90;999.90;;;16.40;99.60;;;;;;6649137;88;20645;-75
2022/09/30 17:12:11;;;;;;;1999.90;999.90;;;16.00;99.90;;;;;;6645301;88;20268;-75
2022/09/30 17:22:12;;;;;;;1999.90;999.90;;;15.50;99.90;;;;;;6650877;88;20326;-77
2022/09/30 17:32:12;;;;;;;1999.90;999.90;;;15.30;99.90;;;;;;6640481;89;20200;-78
2022/09/30 17:52:34;;;;;;;1999.90;999.90;;;14.80;99.90;;;;;;6648751;89;20182;-76
2022/09/30 18:02:34;;;;;;;1999.90;999.90;;;14.40;99.90;;;;;;6671916;88;20648;-76
2022/09/30 18:12:35;;;;;;;1999.90;999.90;;;14.10;99.90;;;;;;6644621;89;20233;-76
2022/09/30 18:22:35;;;;;;;1999.90;999.90;;;13.90;99.90;;;;;;6654105;88;20790;-77
2022/09/30 18:32:36;;;;;;;1999.90;999.90;;;13.40;99.90;;;;;;6642094;88;20546;-75
2022/09/30 18:42:37;;;;;;;1999.90;999.90;;;13.20;99.90;;;;;;6653650;88;21253;-76
2022/09/30 18:52:38;;;;;;;1999.90;999.90;;;13.10;99.90;;;;;;6654280;89;20376;-76
2022/09/30 19:02:39;;;;;;;1999.90;999.90;;;12.80;99.90;;;;;;6646287;89;20200;-77
2022/09/30 19:12:43;;;;;;;1999.90;999.90;;;12.60;99.90;;;;;;6646974;89;20192;-77
2022/09/30 19:22:44;;;;;;;1999.90;999.90;;;12.50;99.90;;;;;;6635167;89;20524;-76
2022/09/30 19:32:44;;;;;;;1999.90;999.90;;;12.30;99.90;;;;;;6656540;89;20672;-78
2022/09/30 19:42:46;;;;;;;1999.90;999.90;;;12.10;99.90;;;;;;6646253;89;20244;-78
2022/09/30 19:52:46;;;;;;;1999.90;999.90;;;12.00;99.90;;;;;;6650096;89;20216;-77
2022/09/30 20:02:47;;;;;;;1999.90;999.90;;;11.60;99.90;;;;;;6645867;89;20275;-78
2022/09/30 20:12:47;;;;;;;1999.90;999.90;;;11.50;99.90;;;;;;6649201;89;20428;-76
2022/09/30 20:22:48;;;;;;;1999.90;999.90;;;11.30;99.90;;;;;;6647141;89;20344;-79
2022/09/30 20:32:48;;;;;;;1999.90;999.90;;;10.90;99.90;;;;;;6646084;89;20335;-77
2022/09/30 20:42:50;;;;;;;1999.90;999.90;;;10.80;99.90;;;;;;6644193;89;20187;-77
2022/09/30 20:52:52;;;;;;;1999.90;999.90;;;10.80;99.90;;;;;;6633945;89;20201;-77
2022/09/30 21:02:52;;;;;;;1999.90;999.90;;;10.80;99.90;;;;;;6634648;89;20235;-78
2022/09/30 21:12:54;;;;;;;1999.90;999.90;;;11.00;99.90;;;;;;6630833;89;20201;-76
2022/09/30 21:22:54;;;;;;;1999.90;999.90;;;11.20;99.90;;;;;;6636673;89;20210;-77
2022/09/30 21:32:55;;;;;;;1999.90;999.90;;;11.20;99.90;;;;;;6654856;77;20238;-77
2022/09/30 21:42:56;;;;;;;1999.90;999.90;;;11.20;99.90;;;;;;6647713;89;20181;-79
2022/09/30 21:52:58;;;;;;;1999.90;999.90;;;11.40;99.90;;;;;;6617362;89;20245;-79
2022/09/30 22:02:59;;;;;;;1999.90;999.90;;;11.50;99.90;;;;;;6620915;89;20228;-78
2022/09/30 22:13:00;;;;;;;1999.90;999.90;;;11.60;99.90;;;;;;6617680;89;20345;-78
2022/09/30 22:23:00;;;;;;;1999.90;999.90;;;11.80;99.90;;;;;;6618134;89;20220;-78
2022/09/30 22:43:23;;;;;;;1999.90;999.90;;;11.50;99.90;;;;;;6617183;89;20232;-79
2022/09/30 22:53:25;;;;;;;1999.90;999.90;;;11.40;99.90;;;;;;6620078;89;20259;-78
2022/09/30 23:03:26;;;;;;;1999.90;999.90;;;11.30;99.90;;;;;;6616658;89;20254;-79
2022/09/30 23:13:33;;;;;;;1999.90;999.90;;;11.20;99.90;;;;;;6617193;89;20218;-80
2022/09/30 23:23:36;;;;;;;1999.90;999.90;;;11.20;99.90;;;;;;6616558;89;20188;-79
2022/09/30 23:33:45;;;;;;;1999.90;999.90;;;11.20;99.90;;;;;;6617048;89;20234;-77
2022/09/30 23:43:50;;;;;;;1999.90;999.90;;;11.10;99.90;;;;;;6617578;89;20682;-78
2022/09/30 23:53:51;;;;;;;1999.90;999.90;;;11.10;99.90;;;;;;6627069;89;20219;-78
